createdAt,value
2023-04-12T00:00:46.563Z,932.95
2023-04-12T00:01:46.912Z,932.92
2023-04-12T00:02:47.831Z,932.85
2023-04-12T00:03:48.383Z,932.86
2023-04-12T00:04:48.980Z,932.86
2023-04-12T00:05:49.841Z,932.87
2023-04-12T00:06:50.564Z,932.87
2023-04-12T00:07:51.305Z,932.84
2023-04-12T00:08:52.336Z,932.84
2023-04-12T00:09:53.230Z,932.85
2023-04-12T00:10:54.218Z,932.8
2023-04-12T00:11:55.147Z,932.76
2023-04-12T00:12:55.625Z,932.78
2023-04-12T00:13:56.069Z,932.71
2023-04-12T00:14:56.860Z,932.72
2023-04-12T00:15:57.122Z,932.71
2023-04-12T00:16:57.858Z,932.71
2023-04-12T00:17:58.357Z,932.71
2023-04-12T00:18:58.690Z,932.68
2023-04-12T00:19:59.177Z,932.71
2023-04-12T00:20:59.796Z,932.71
2023-04-12T00:22:00.470Z,932.67
2023-04-12T00:23:01.406Z,932.62
2023-04-12T00:24:02.134Z,932.62
2023-04-12T00:25:03.008Z,932.62
2023-04-12T00:26:03.551Z,932.58
2023-04-12T00:27:04.152Z,932.54
2023-04-12T00:28:04.256Z,932.53
2023-04-12T00:29:04.774Z,932.49
2023-04-12T00:30:04.905Z,932.5
2023-04-12T00:31:05.238Z,932.52
2023-04-12T00:32:05.989Z,932.5
2023-04-12T00:33:06.563Z,932.52
2023-04-12T00:34:07.345Z,932.5
2023-04-12T00:35:07.848Z,932.5
2023-04-12T00:36:08.431Z,932.49
2023-04-12T00:37:09.119Z,932.44
2023-04-12T00:38:10.238Z,932.44
2023-04-12T00:39:10.807Z,932.43
2023-04-12T00:40:11.306Z,932.49
2023-04-12T00:41:11.596Z,932.47
2023-04-12T00:42:12.098Z,932.47
2023-04-12T00:43:12.410Z,932.44
2023-04-12T00:44:12.901Z,932.42
2023-04-12T00:45:13.118Z,932.42
2023-04-12T00:46:13.619Z,932.41
2023-04-12T00:47:13.758Z,932.42
2023-04-12T00:48:14.803Z,932.43
2023-04-12T00:49:15.326Z,932.46
2023-04-12T00:50:15.811Z,932.42
2023-04-12T00:51:16.053Z,932.43
2023-04-12T00:52:16.566Z,932.46
2023-04-12T00:53:17.118Z,932.38
2023-04-12T00:54:17.863Z,932.37
2023-04-12T00:55:18.378Z,932.34
2023-04-12T00:56:19.332Z,932.32
2023-04-12T00:57:19.865Z,932.36
2023-04-12T00:58:20.367Z,932.37
2023-04-12T00:59:21.275Z,932.35
2023-04-12T01:00:21.564Z,932.36
2023-04-12T01:01:21.920Z,932.31
2023-04-12T01:02:23.072Z,932.3
2023-04-12T01:03:23.723Z,932.32
2023-04-12T01:04:24.402Z,932.29
2023-04-12T01:05:25.103Z,932.3
2023-04-12T01:06:25.639Z,932.27
2023-04-12T01:07:26.143Z,932.33
2023-04-12T01:08:26.518Z,932.3
2023-04-12T01:09:27.034Z,932.25
2023-04-12T01:10:27.142Z,932.24
2023-04-12T01:11:27.518Z,932.23
2023-04-12T01:12:28.308Z,932.22
2023-04-12T01:13:28.842Z,932.24
2023-04-12T01:14:29.168Z,932.23
2023-04-12T01:15:29.864Z,932.25
2023-04-12T01:16:30.622Z,932.25
2023-04-12T01:17:30.896Z,932.22
2023-04-12T01:18:31.806Z,932.26
2023-04-12T01:19:32.505Z,932.2
2023-04-12T01:20:33.165Z,932.2
2023-04-12T01:21:34.008Z,932.19
2023-04-12T01:22:34.699Z,932.19
2023-04-12T01:23:35.022Z,932.16
2023-04-12T01:24:35.768Z,932.17
2023-04-12T01:25:36.300Z,932.15
2023-04-12T01:26:36.864Z,932.17
2023-04-12T01:27:37.820Z,932.12
2023-04-12T01:28:38.528Z,932.12
2023-04-12T01:29:39.496Z,932.12
2023-04-12T01:30:40.365Z,932.09
2023-04-12T01:31:41.441Z,932.1
2023-04-12T01:32:41.615Z,932.11
2023-04-12T01:33:41.865Z,932.09
2023-04-12T01:34:42.468Z,932.1
2023-04-12T01:35:43.434Z,932.06
2023-04-12T01:36:43.743Z,932.08
2023-04-12T01:37:44.441Z,932.08
2023-04-12T01:38:45.115Z,932.04
2023-04-12T01:39:46.044Z,932.05
2023-04-12T01:40:46.162Z,932.04
2023-04-12T01:41:46.882Z,932.08
2023-04-12T01:42:47.186Z,932.08
2023-04-12T01:43:48.281Z,932.06
2023-04-12T01:44:49.147Z,932.06
2023-04-12T01:45:49.925Z,932.05
2023-04-12T01:46:50.113Z,932.08
2023-04-12T01:47:50.632Z,932.08
2023-04-12T01:48:51.673Z,932.08
2023-04-12T01:49:52.392Z,932.11
2023-04-12T01:50:52.497Z,932.09
2023-04-12T01:51:53.102Z,932.09
2023-04-12T01:52:54.091Z,932.1
2023-04-12T01:53:54.607Z,932.15
2023-04-12T01:54:55.532Z,932.17
2023-04-12T01:55:55.629Z,932.19
2023-04-12T01:56:55.905Z,932.18
2023-04-12T01:57:56.884Z,932.21
2023-04-12T01:58:57.267Z,932.19
2023-04-12T01:59:57.600Z,932.17
2023-04-12T02:00:58.296Z,932.23
2023-04-12T02:01:59.013Z,932.23
2023-04-12T02:02:59.507Z,932.26
2023-04-12T02:04:00.903Z,932.28
2023-04-12T02:05:00.744Z,932.28
2023-04-12T02:06:01.070Z,932.31
2023-04-12T02:07:01.393Z,932.3
2023-04-12T02:08:02.166Z,932.27
2023-04-12T02:09:03.118Z,932.35
2023-04-12T02:10:03.872Z,932.3
2023-04-12T02:11:04.370Z,932.27
2023-04-12T02:12:04.934Z,932.29
2023-04-12T02:13:05.450Z,932.27
2023-04-12T02:14:05.920Z,932.24
2023-04-12T02:15:06.641Z,932.27
2023-04-12T02:16:07.166Z,932.3
2023-04-12T02:17:07.840Z,932.29
2023-04-12T02:18:08.463Z,932.26
2023-04-12T02:19:09.418Z,932.29
2023-04-12T02:20:10.153Z,932.25
2023-04-12T02:21:10.862Z,932.28
2023-04-12T02:22:11.105Z,932.32
2023-04-12T02:23:11.811Z,932.27
2023-04-12T02:24:12.334Z,932.24
2023-04-12T02:25:12.647Z,932.24
2023-04-12T02:26:13.526Z,932.21
2023-04-12T02:27:14.002Z,932.26
2023-04-12T02:28:14.697Z,932.22
2023-04-12T02:29:15.396Z,932.19
2023-04-12T02:30:16.284Z,932.23
2023-04-12T02:31:16.727Z,932.24
2023-04-12T02:32:17.080Z,932.24
2023-04-12T02:33:17.279Z,932.2
2023-04-12T02:34:18.091Z,932.18
2023-04-12T02:35:18.844Z,932.15
2023-04-12T02:36:19.513Z,932.11
2023-04-12T02:37:20.483Z,932.11
2023-04-12T02:38:21.167Z,932.08
2023-04-12T02:39:21.613Z,932.08
2023-04-12T02:40:22.127Z,932.04
2023-04-12T02:41:22.814Z,932.03
2023-04-12T02:42:23.412Z,932.05
2023-04-12T02:43:23.559Z,932.03
2023-04-12T02:44:24.457Z,932.01
2023-04-12T02:45:25.186Z,932.03
2023-04-12T02:46:25.804Z,932.04
2023-04-12T02:47:25.989Z,932
2023-04-12T02:48:26.344Z,932.02
2023-04-12T02:49:27.227Z,932.04
2023-04-12T02:50:28.153Z,932.01
2023-04-12T02:51:28.439Z,931.99
2023-04-12T02:52:29.466Z,932
2023-04-12T02:53:29.789Z,931.95
2023-04-12T02:54:30.503Z,931.95
2023-04-12T02:55:31.228Z,931.9
2023-04-12T02:56:31.729Z,931.93
2023-04-12T02:57:32.074Z,931.92
2023-04-12T02:58:32.582Z,931.95
2023-04-12T02:59:33.497Z,931.94
2023-04-12T03:00:34.422Z,931.86
2023-04-12T03:01:35.196Z,931.9
2023-04-12T03:02:35.484Z,931.8
2023-04-12T03:03:36.604Z,931.75
2023-04-12T03:04:36.776Z,931.76
2023-04-12T03:05:37.519Z,931.75
2023-04-12T03:06:38.199Z,931.79
2023-04-12T03:07:38.519Z,931.73
2023-04-12T03:08:39.220Z,931.7
2023-04-12T03:09:39.725Z,931.67
2023-04-12T03:10:40.037Z,931.64
2023-04-12T03:11:40.954Z,931.63
2023-04-12T03:12:41.363Z,931.61
2023-04-12T03:13:41.509Z,931.58
2023-04-12T03:14:41.729Z,931.62
2023-04-12T03:15:42.460Z,931.59
2023-04-12T03:16:43.310Z,931.58
2023-04-12T03:17:44.291Z,931.54
2023-04-12T03:18:45.208Z,931.53
2023-04-12T03:19:45.944Z,931.52
2023-04-12T03:20:47.604Z,931.54
2023-04-12T03:21:46.753Z,931.56
2023-04-12T03:22:47.563Z,931.55
2023-04-12T03:23:47.698Z,931.53
2023-04-12T03:24:48.514Z,931.52
2023-04-12T03:25:48.623Z,931.52
2023-04-12T03:26:49.524Z,931.52
2023-04-12T03:27:50.227Z,931.49
2023-04-12T03:28:50.938Z,931.46
2023-04-12T03:29:51.042Z,931.45
2023-04-12T03:30:51.579Z,931.43
2023-04-12T03:31:52.413Z,931.42
2023-04-12T03:32:53.093Z,931.43
2023-04-12T03:33:53.912Z,931.43
2023-04-12T03:34:54.296Z,931.34
2023-04-12T03:35:55.011Z,931.35
2023-04-12T03:36:56.042Z,931.31
2023-04-12T03:37:56.892Z,931.28
2023-04-12T03:38:57.548Z,931.26
2023-04-12T03:39:58.337Z,931.22
2023-04-12T03:40:59.273Z,931.17
2023-04-12T03:42:00.013Z,931.15
2023-04-12T03:44:05.723Z,931.07
2023-04-12T03:45:06.047Z,931.06
2023-04-12T03:46:06.551Z,931.05
2023-04-12T03:47:07.389Z,931.01
2023-04-12T03:48:08.131Z,931
2023-04-12T03:49:08.267Z,930.97
2023-04-12T03:50:11.910Z,930.94
2023-04-12T03:51:09.827Z,930.92
2023-04-12T03:52:10.095Z,930.88
2023-04-12T03:53:10.544Z,930.87
2023-04-12T03:54:11.502Z,930.86
2023-04-12T03:55:12.068Z,930.83
2023-04-12T03:56:12.404Z,930.82
2023-04-12T03:57:12.879Z,930.8
2023-04-12T03:58:13.551Z,930.81
2023-04-12T03:59:14.515Z,930.82
2023-04-12T04:00:15.028Z,930.83
2023-04-12T04:01:15.530Z,930.77
2023-04-12T04:02:16.711Z,930.73
2023-04-12T04:03:17.621Z,930.76
2023-04-12T04:04:18.073Z,930.77
2023-04-12T04:05:18.120Z,930.71
2023-04-12T04:06:18.889Z,930.75
2023-04-12T04:07:19.970Z,930.71
2023-04-12T04:08:20.877Z,930.64
2023-04-12T04:09:21.563Z,930.64
2023-04-12T04:10:22.478Z,930.63
2023-04-12T04:11:23.182Z,930.63
2023-04-12T04:12:23.664Z,930.6
2023-04-12T04:13:23.865Z,930.64
2023-04-12T04:14:24.823Z,930.65
2023-04-12T04:15:25.311Z,930.58
2023-04-12T04:16:25.822Z,930.58
2023-04-12T04:17:26.645Z,930.54
2023-04-12T04:18:26.823Z,930.55
2023-04-12T04:19:27.342Z,930.52
2023-04-12T04:20:28.260Z,930.47
2023-04-12T04:21:28.785Z,930.49
2023-04-12T04:22:29.668Z,930.47
2023-04-12T04:23:30.338Z,930.45
2023-04-12T04:24:30.817Z,930.45
2023-04-12T04:25:31.730Z,930.43
2023-04-12T04:26:32.510Z,930.42
2023-04-12T04:27:33.207Z,930.33
2023-04-12T04:28:35.148Z,930.35
2023-04-12T04:29:35.190Z,930.35
2023-04-12T04:30:35.298Z,930.38
2023-04-12T04:31:35.807Z,930.38
2023-04-12T04:32:36.632Z,930.39
2023-04-12T04:33:37.172Z,930.37
2023-04-12T04:34:37.541Z,930.33
2023-04-12T04:35:38.065Z,930.35
2023-04-12T04:36:38.152Z,930.33
2023-04-12T04:37:38.991Z,930.36
2023-04-12T04:38:39.691Z,930.3
2023-04-12T04:39:40.379Z,930.3
2023-04-12T04:40:41.262Z,930.35
2023-04-12T04:41:41.995Z,930.28
2023-04-12T04:42:42.607Z,930.3
2023-04-12T04:43:43.204Z,930.28
2023-04-12T04:44:43.987Z,930.26
2023-04-12T04:45:44.546Z,930.24
2023-04-12T04:46:45.577Z,930.24
2023-04-12T04:47:46.329Z,930.27
2023-04-12T04:48:46.860Z,930.24
2023-04-12T04:49:47.428Z,930.24
2023-04-12T04:50:48.338Z,930.21
2023-04-12T04:51:49.037Z,930.26
2023-04-12T04:52:49.586Z,930.23
2023-04-12T04:53:49.869Z,930.24
2023-04-12T04:54:50.895Z,930.22
2023-04-12T04:55:51.068Z,930.23
2023-04-12T04:56:51.405Z,930.21
2023-04-12T04:57:51.900Z,930.2
2023-04-12T04:58:54.052Z,930.18
2023-04-12T04:59:53.183Z,930.18
2023-04-12T05:00:53.531Z,930.16
2023-04-12T05:01:53.760Z,930.15
2023-04-12T05:02:54.323Z,930.17
2023-04-12T05:03:55.313Z,930.16
2023-04-12T05:04:56.147Z,930.15
2023-04-12T05:05:56.662Z,930.13
2023-04-12T05:06:57.350Z,930.12
2023-04-12T05:07:57.645Z,930.14
2023-04-12T05:08:58.929Z,930.06
2023-04-12T05:09:59.169Z,930.1
2023-04-12T05:11:00.117Z,930.09
2023-04-12T05:12:00.936Z,930.08
2023-04-12T05:13:01.823Z,930.09
2023-04-12T05:14:02.860Z,930.09
2023-04-12T05:16:03.467Z,930.08
2023-04-12T05:17:04.041Z,930.06
2023-04-12T05:18:04.604Z,930.08
2023-04-12T05:19:05.536Z,930.04
2023-04-12T05:20:06.521Z,930.01
2023-04-12T05:21:07.331Z,929.99
2023-04-12T05:22:07.820Z,929.98
2023-04-12T05:23:08.111Z,929.99
2023-04-12T05:24:08.581Z,930
2023-04-12T05:25:09.266Z,929.96
2023-04-12T05:26:09.993Z,929.98
2023-04-12T05:27:10.758Z,929.95
2023-04-12T05:28:11.489Z,929.91
2023-04-12T05:29:11.604Z,929.93
2023-04-12T05:30:12.412Z,929.98
2023-04-12T05:31:13.181Z,929.9
2023-04-12T05:32:13.300Z,929.9
2023-04-12T05:33:13.915Z,929.87
2023-04-12T05:34:14.408Z,929.85
2023-04-12T05:35:14.530Z,929.82
2023-04-12T05:36:15.315Z,929.78
2023-04-12T05:37:16.013Z,929.8
2023-04-12T05:38:16.711Z,929.76
2023-04-12T05:39:19.431Z,929.76
2023-04-12T05:40:18.759Z,929.69
2023-04-12T05:41:19.550Z,929.73
2023-04-12T05:42:20.073Z,929.7
2023-04-12T05:43:20.392Z,929.71
2023-04-12T05:44:21.013Z,929.71
2023-04-12T05:45:21.643Z,929.65
2023-04-12T05:46:21.982Z,929.61
2023-04-12T05:47:22.830Z,929.63
2023-04-12T05:48:23.746Z,929.63
2023-04-12T05:49:24.239Z,929.58
2023-04-12T05:50:24.738Z,929.52
2023-04-12T05:51:34.299Z,929.51
2023-04-12T05:52:25.935Z,929.47
2023-04-12T05:53:26.445Z,929.48
2023-04-12T05:54:27.292Z,929.44
2023-04-12T05:55:28.005Z,929.49
2023-04-12T05:56:28.974Z,929.43
2023-04-12T05:57:29.729Z,929.43
2023-04-12T05:58:30.635Z,929.45
2023-04-12T05:59:31.166Z,929.43
2023-04-12T06:00:32.090Z,929.45
2023-04-12T06:01:32.639Z,929.49
2023-04-12T06:02:33.610Z,929.48
2023-04-12T06:03:34.321Z,929.45
2023-04-12T06:04:46.772Z,929.41
2023-04-12T06:05:34.909Z,929.44
2023-04-12T06:06:35.787Z,929.45
2023-04-12T06:07:36.269Z,929.44
2023-04-12T06:08:36.739Z,929.47
2023-04-12T06:09:37.468Z,929.47
2023-04-12T06:10:38.001Z,929.47
2023-04-12T06:11:38.716Z,929.43
2023-04-12T06:12:39.577Z,929.44
2023-04-12T06:13:40.531Z,929.4
2023-04-12T06:14:41.578Z,929.46
2023-04-12T06:15:41.716Z,929.43
2023-04-12T06:16:42.385Z,929.44
2023-04-12T06:17:42.727Z,929.41
2023-04-12T06:18:43.021Z,929.38
2023-04-12T06:19:44.113Z,929.39
2023-04-12T06:20:44.871Z,929.41
2023-04-12T06:21:45.370Z,929.34
2023-04-12T06:22:45.873Z,929.36
2023-04-12T06:23:46.845Z,929.31
2023-04-12T06:24:47.488Z,929.32
2023-04-12T06:25:48.176Z,929.28
2023-04-12T06:26:48.802Z,929.24
2023-04-12T06:27:49.725Z,929.3
2023-04-12T06:28:50.406Z,929.26
2023-04-12T06:29:51.102Z,929.38
2023-04-12T06:30:51.832Z,929.31
2023-04-12T06:31:52.239Z,929.36
2023-04-12T06:32:53.077Z,929.36
2023-04-12T06:33:53.915Z,929.3
2023-04-12T06:34:54.155Z,929.32
2023-04-12T06:35:54.726Z,929.35
2023-04-12T06:36:54.748Z,929.33
2023-04-12T06:37:55.434Z,929.32
2023-04-12T06:38:56.647Z,929.32
2023-04-12T06:39:56.528Z,929.31
2023-04-12T06:40:57.053Z,929.3
2023-04-12T06:41:57.822Z,929.26
2023-04-12T06:42:58.312Z,929.21
2023-04-12T06:43:59.228Z,929.22
2023-04-12T06:45:00.031Z,929.15
2023-04-12T06:46:00.642Z,929.16
2023-04-12T06:47:01.446Z,929.09
2023-04-12T06:48:01.757Z,929.15
2023-04-12T06:49:02.692Z,929.1
2023-04-12T06:50:03.394Z,929.11
2023-04-12T06:51:03.941Z,929.11
2023-04-12T06:52:04.843Z,929.04
2023-04-12T06:53:05.572Z,929.01
2023-04-12T06:54:05.695Z,928.99
2023-04-12T06:55:06.878Z,929.01
2023-04-12T06:56:07.615Z,928.97
2023-04-12T06:57:08.022Z,928.97
2023-04-12T06:58:08.749Z,928.97
2023-04-12T06:59:09.456Z,928.98
2023-04-12T07:00:09.970Z,928.96
2023-04-12T07:01:10.134Z,929.03
2023-04-12T07:02:10.523Z,928.96
2023-04-12T07:03:11.573Z,928.94
2023-04-12T07:04:12.514Z,928.92
2023-04-12T07:05:12.701Z,928.91
2023-04-12T07:06:24.107Z,928.89
2023-04-12T07:07:14.137Z,928.85
2023-04-12T07:08:14.413Z,928.84
2023-04-12T07:09:14.803Z,928.8
2023-04-12T07:10:15.812Z,928.79
2023-04-12T07:11:21.220Z,928.74
2023-04-12T07:12:16.632Z,928.77
2023-04-12T07:13:17.374Z,928.82
2023-04-12T07:14:18.276Z,928.81
2023-04-12T07:15:19.279Z,928.84
2023-04-12T07:16:20.223Z,928.82
2023-04-12T07:17:20.342Z,928.89
2023-04-12T07:18:21.429Z,928.85
2023-04-12T07:19:22.346Z,928.83
2023-04-12T07:20:23.041Z,928.81
2023-04-12T07:21:23.369Z,928.78
2023-04-12T07:22:24.083Z,928.81
2023-04-12T07:23:25.154Z,928.81
2023-04-12T07:24:25.715Z,928.77
2023-04-12T07:25:26.324Z,928.74
2023-04-12T07:26:27.028Z,928.76
2023-04-12T07:27:27.794Z,928.69
2023-04-12T07:28:28.876Z,928.69
2023-04-12T07:29:29.798Z,928.69
2023-04-12T07:30:30.487Z,928.7
2023-04-12T07:31:31.542Z,928.68
2023-04-12T07:32:32.293Z,928.75
2023-04-12T07:33:33.316Z,928.71
2023-04-12T07:34:34.131Z,928.64
2023-04-12T07:35:35.192Z,928.63
2023-04-12T07:36:36.102Z,928.61
2023-04-12T07:37:36.797Z,928.59
2023-04-12T07:38:37.706Z,928.6
2023-04-12T07:39:38.481Z,928.61
2023-04-12T07:40:39.453Z,928.57
2023-04-12T07:41:40.196Z,928.53
2023-04-12T07:42:41.168Z,928.55
2023-04-12T07:43:42.133Z,928.59
2023-04-12T07:44:42.884Z,928.55
2023-04-12T07:45:43.970Z,928.55
2023-04-12T07:46:44.370Z,928.54
2023-04-12T07:47:45.111Z,928.52
2023-04-12T07:48:45.448Z,928.53
2023-04-12T07:49:45.880Z,928.52
2023-04-12T07:50:46.783Z,928.58
2023-04-12T07:51:47.720Z,928.55
2023-04-12T07:52:48.416Z,928.58
2023-04-12T07:53:48.897Z,928.53
2023-04-12T07:54:49.481Z,928.56
2023-04-12T07:55:49.965Z,928.55
2023-04-12T07:56:50.910Z,928.45
2023-04-12T07:57:51.987Z,928.5
2023-04-12T07:58:52.904Z,928.52
2023-04-12T07:59:53.716Z,928.49
2023-04-12T08:00:54.692Z,928.52
2023-04-12T08:01:55.112Z,928.48
2023-04-12T08:02:55.865Z,928.46
2023-04-12T08:03:56.990Z,928.47
2023-04-12T08:04:57.618Z,928.47
2023-04-12T08:05:58.330Z,928.46
2023-04-12T08:06:59.407Z,928.51
2023-04-12T08:07:59.532Z,928.56
2023-04-12T08:08:59.640Z,928.57
2023-04-12T08:10:00.547Z,928.54
2023-04-12T08:11:01.487Z,928.51
2023-04-12T08:12:01.680Z,928.51
2023-04-12T08:13:02.469Z,928.52
2023-04-12T08:14:02.644Z,928.55
2023-04-12T08:15:03.368Z,928.41
2023-04-12T08:16:04.000Z,928.44
2023-04-12T08:17:04.933Z,928.42
2023-04-12T08:18:05.698Z,928.38
2023-04-12T08:19:05.908Z,928.39
2023-04-12T08:20:06.863Z,928.4
2023-04-12T08:21:07.758Z,928.42
2023-04-12T08:22:08.492Z,928.48
2023-04-12T08:23:09.012Z,928.43
2023-04-12T08:24:09.951Z,928.43
2023-04-12T08:25:10.704Z,928.41
2023-04-12T08:26:11.352Z,928.38
2023-04-12T08:27:12.071Z,928.32
2023-04-12T08:28:12.247Z,928.31
2023-04-12T08:29:13.000Z,928.3
2023-04-12T08:30:13.171Z,928.2
2023-04-12T08:31:13.349Z,928.14
2023-04-12T08:32:13.654Z,928.06
2023-04-12T08:33:14.540Z,927.96
2023-04-12T08:34:14.664Z,927.9
2023-04-12T08:35:15.418Z,927.95
2023-04-12T08:36:15.590Z,927.95
2023-04-12T08:37:15.769Z,928.01
2023-04-12T08:38:16.478Z,927.93
2023-04-12T08:39:16.937Z,927.87
2023-04-12T08:40:17.376Z,927.8
2023-04-12T08:41:18.145Z,927.81
2023-04-12T08:42:18.271Z,927.78
2023-04-12T08:43:19.021Z,927.79
2023-04-12T08:44:19.570Z,927.8
2023-04-12T08:45:20.502Z,927.76
2023-04-12T08:46:21.377Z,927.66
2023-04-12T08:47:21.579Z,927.55
2023-04-12T08:48:22.506Z,927.45
2023-04-12T08:49:23.464Z,927.4
2023-04-12T08:50:24.395Z,927.36
2023-04-12T08:51:25.304Z,927.34
2023-04-12T08:52:26.244Z,927.32
2023-04-12T08:53:27.000Z,927.28
2023-04-12T08:54:27.125Z,927.29
2023-04-12T08:55:27.820Z,927.27
2023-04-12T08:56:28.365Z,927.21
2023-04-12T08:57:31.284Z,927.22
2023-04-12T08:58:29.581Z,927.14
2023-04-12T08:59:30.328Z,927.13
2023-04-12T09:00:31.070Z,927.09
2023-04-12T09:01:31.421Z,927.08
2023-04-12T09:02:32.458Z,927.07
2023-04-12T09:03:33.588Z,927.06
2023-04-12T09:04:32.977Z,927.05
2023-04-12T09:05:33.157Z,927.06
2023-04-12T09:06:33.873Z,927.03
2023-04-12T09:07:34.561Z,926.99
2023-04-12T09:08:35.358Z,927.01
2023-04-12T09:09:36.157Z,926.98
2023-04-12T09:10:36.897Z,926.94
2023-04-12T09:11:37.730Z,926.92
2023-04-12T09:12:38.310Z,926.91
2023-04-12T09:13:38.940Z,926.89
2023-04-12T09:14:39.270Z,926.91
2023-04-12T09:15:40.225Z,926.92
2023-04-12T09:16:40.594Z,926.9
2023-04-12T09:17:40.839Z,926.91
2023-04-12T09:18:41.239Z,926.86
2023-04-12T09:19:41.453Z,926.94
2023-04-12T09:20:42.197Z,926.91
2023-04-12T09:21:42.943Z,926.94
2023-04-12T09:22:43.687Z,926.93
2023-04-12T09:23:44.234Z,926.94
2023-04-12T09:24:44.476Z,926.91
2023-04-12T09:25:45.432Z,926.96
2023-04-12T09:26:46.467Z,926.9
2023-04-12T09:27:47.247Z,926.94
2023-04-12T09:28:47.418Z,926.91
2023-04-12T09:29:48.281Z,926.94
2023-04-12T09:30:49.144Z,926.9
2023-04-12T09:31:49.548Z,926.92
2023-04-12T09:32:50.243Z,926.96
2023-04-12T09:33:50.891Z,926.93
2023-04-12T09:34:51.743Z,926.94
2023-04-12T09:35:52.769Z,926.96
2023-04-12T09:36:53.368Z,926.91
2023-04-12T09:37:54.483Z,926.85
2023-04-12T09:38:55.415Z,926.88
2023-04-12T09:39:56.044Z,926.86
2023-04-12T09:40:56.257Z,926.9
2023-04-12T09:41:57.181Z,926.77
2023-04-12T09:42:57.354Z,926.78
2023-04-12T09:43:58.376Z,926.79
2023-04-12T09:44:58.417Z,926.83
2023-04-12T09:45:59.066Z,926.82
2023-04-12T09:46:59.227Z,926.79
2023-04-12T09:47:59.427Z,926.79
2023-04-12T09:48:59.617Z,926.68
2023-04-12T09:50:00.389Z,926.73
2023-04-12T09:51:01.487Z,926.68
2023-04-12T09:52:01.653Z,926.68
2023-04-12T09:53:02.846Z,926.62
2023-04-12T09:54:02.854Z,926.57
2023-04-12T09:55:03.790Z,926.6
2023-04-12T09:56:04.555Z,926.59
2023-04-12T09:57:05.209Z,926.63
2023-04-12T09:58:05.389Z,926.59
2023-04-12T09:59:05.704Z,926.62
2023-04-12T10:00:06.091Z,926.56
2023-04-12T10:01:06.492Z,926.58
2023-04-12T10:02:06.807Z,926.58
2023-04-12T10:03:07.215Z,926.58
2023-04-12T10:04:07.599Z,926.56
2023-04-12T10:05:08.212Z,926.56
2023-04-12T10:06:08.806Z,926.56
2023-04-12T10:07:09.576Z,926.51
2023-04-12T10:08:09.785Z,926.48
2023-04-12T10:09:10.644Z,926.43
2023-04-12T10:10:11.417Z,926.41
2023-04-12T10:11:12.099Z,926.38
2023-04-12T10:12:12.308Z,926.39
2023-04-12T10:13:12.629Z,926.36
2023-04-12T10:14:15.750Z,926.32
2023-04-12T10:15:14.318Z,926.33
2023-04-12T10:16:15.133Z,926.3
2023-04-12T10:17:15.401Z,926.32
2023-04-12T10:18:15.878Z,926.29
2023-04-12T10:19:16.040Z,926.34
2023-04-12T10:20:16.220Z,926.34
2023-04-12T10:21:16.443Z,926.33
2023-04-12T10:22:17.224Z,926.28
2023-04-12T10:23:17.821Z,926.28
2023-04-12T10:24:18.788Z,926.32
2023-04-12T10:25:19.563Z,926.27
2023-04-12T10:26:20.035Z,926.27
2023-04-12T10:27:20.366Z,926.3
2023-04-12T10:28:20.888Z,926.29
2023-04-12T10:29:21.886Z,926.31
2023-04-12T10:30:22.168Z,926.34
2023-04-12T10:31:22.777Z,926.33
2023-04-12T10:32:23.144Z,926.34
2023-04-12T10:33:23.396Z,926.33
2023-04-12T10:34:23.624Z,926.32
2023-04-12T10:35:24.381Z,926.3
2023-04-12T10:36:24.930Z,926.33
2023-04-12T10:37:25.455Z,926.35
2023-04-12T10:38:26.490Z,926.33
2023-04-12T10:39:27.494Z,926.28
2023-04-12T10:40:28.512Z,926.23
2023-04-12T10:41:29.385Z,926.21
2023-04-12T10:42:30.420Z,926.17
2023-04-12T10:43:31.183Z,926.21
2023-04-12T10:44:31.907Z,926.25
2023-04-12T10:45:31.945Z,926.27
2023-04-12T10:46:32.808Z,926.28
2023-04-12T10:47:33.171Z,926.22
2023-04-12T10:48:33.972Z,926.19
2023-04-12T10:49:35.063Z,926.17
2023-04-12T10:50:35.968Z,926.11
2023-04-12T10:51:36.949Z,926.13
2023-04-12T10:52:37.703Z,926.13
2023-04-12T10:53:38.735Z,926.14
2023-04-12T10:54:38.857Z,926.1
2023-04-12T10:55:39.861Z,926.05
2023-04-12T10:56:40.699Z,926.04
2023-04-12T10:57:40.971Z,926.02
2023-04-12T10:58:41.946Z,925.99
2023-04-12T10:59:47.472Z,925.98
2023-04-12T11:00:43.602Z,925.98
2023-04-12T11:01:44.531Z,925.98
2023-04-12T11:02:44.752Z,925.95
2023-04-12T11:03:45.442Z,925.93
2023-04-12T11:04:45.741Z,925.93
2023-04-12T11:05:46.145Z,925.91
2023-04-12T11:06:46.669Z,925.89
2023-04-12T11:07:47.372Z,925.91
2023-04-12T11:08:48.184Z,925.91
2023-04-12T11:09:49.109Z,925.92
2023-04-12T11:10:49.678Z,925.91
2023-04-12T11:11:50.549Z,925.94
2023-04-12T11:12:50.977Z,925.98
2023-04-12T11:13:51.754Z,926
2023-04-12T11:14:52.050Z,926
2023-04-12T11:15:52.303Z,926.02
2023-04-12T11:16:52.497Z,926.04
2023-04-12T11:17:53.507Z,926.05
2023-04-12T11:18:54.247Z,926.05
2023-04-12T11:19:55.312Z,926.05
2023-04-12T11:20:56.394Z,926
2023-04-12T11:21:57.259Z,925.97
2023-04-12T11:22:58.040Z,925.95
2023-04-12T11:23:58.317Z,925.9
2023-04-12T11:24:58.414Z,925.88
2023-04-12T11:25:59.045Z,925.91
2023-04-12T11:26:59.681Z,925.91
2023-04-12T11:28:00.582Z,925.91
2023-04-12T11:29:00.693Z,925.89
2023-04-12T11:30:01.122Z,925.92
2023-04-12T11:31:01.310Z,925.9
2023-04-12T11:32:01.892Z,925.92
2023-04-12T11:33:02.839Z,925.95
2023-04-12T11:34:03.092Z,925.92
2023-04-12T11:35:04.065Z,925.97
2023-04-12T11:36:05.044Z,925.97
2023-04-12T11:37:05.642Z,926.02
2023-04-12T11:38:05.845Z,926.04
2023-04-12T11:39:06.730Z,926.05
2023-04-12T11:40:06.981Z,926.08
2023-04-12T11:41:07.912Z,926.04
2023-04-12T11:42:08.651Z,926.03
2023-04-12T11:43:09.529Z,926.03
2023-04-12T11:44:10.248Z,926.04
2023-04-12T11:45:15.697Z,926.06
2023-04-12T11:46:11.258Z,926.1
2023-04-12T11:47:12.165Z,925.99
2023-04-12T11:48:13.012Z,925.93
2023-04-12T11:49:13.975Z,926
2023-04-12T11:50:14.748Z,925.99
2023-04-12T11:51:15.387Z,925.99
2023-04-12T11:52:15.999Z,925.95
2023-04-12T11:53:16.942Z,925.93
2023-04-12T11:54:17.665Z,925.92
2023-04-12T11:55:18.385Z,925.93
2023-04-12T11:56:18.712Z,925.9
2023-04-12T11:57:19.507Z,925.88
2023-04-12T11:58:20.385Z,925.85
2023-04-12T11:59:20.910Z,925.85
2023-04-12T12:00:21.657Z,925.83
2023-04-12T12:01:22.672Z,925.84
2023-04-12T12:02:24.587Z,925.87
2023-04-12T12:03:24.482Z,925.88
2023-04-12T12:04:25.534Z,925.86
2023-04-12T12:05:25.775Z,925.85
2023-04-12T12:06:26.589Z,925.87
2023-04-12T12:07:26.830Z,925.9
2023-04-12T12:08:27.313Z,925.9
2023-04-12T12:09:28.245Z,925.92
2023-04-12T12:10:41.942Z,925.89
2023-04-12T12:11:29.589Z,925.86
2023-04-12T12:12:30.598Z,925.87
2023-04-12T12:13:31.589Z,925.86
2023-04-12T12:14:32.060Z,925.89
2023-04-12T12:15:33.016Z,925.9
2023-04-12T12:16:33.297Z,925.91
2023-04-12T12:17:33.399Z,925.95
2023-04-12T12:18:34.308Z,925.95
2023-04-12T12:19:34.508Z,925.9
2023-04-12T12:20:35.250Z,925.92
2023-04-12T12:21:36.046Z,925.94
2023-04-12T12:22:36.752Z,925.92
2023-04-12T12:23:37.725Z,925.9
2023-04-12T12:24:41.155Z,925.98
2023-04-12T12:25:38.660Z,925.95
2023-04-12T12:26:39.614Z,925.98
2023-04-12T12:27:40.597Z,925.93
2023-04-12T12:28:40.928Z,925.89
2023-04-12T12:29:41.832Z,925.91
2023-04-12T12:30:41.968Z,925.89
2023-04-12T12:31:43.323Z,925.87
2023-04-12T12:32:42.890Z,925.91
2023-04-12T12:34:00.311Z,925.89
2023-04-12T12:34:44.048Z,925.9
2023-04-12T12:35:44.701Z,925.88
2023-04-12T12:36:45.763Z,925.9
2023-04-12T12:37:46.663Z,925.89
2023-04-12T12:38:46.782Z,925.9
2023-04-12T12:39:47.853Z,925.85
2023-04-12T12:40:48.599Z,925.84
2023-04-12T12:41:49.722Z,925.79